Cherokee — SVCN2 — position and weather

sailwx.info

Track history (hours):
 
Tides and Currents Weather Stations Pressure Air Temp Water Temp Dewpoint Dewpoint Depression Visibility Wind Speed Wind Dir Waves Ship Positions

Cherokee

Last reported at 2018-Aug-07 12:11 UTC. Time now 2018-Aug-15 02:58 UTC.
Position N 27°34' W 015°17'.

Length 274 m; draft 9 m.

Type: Tanker. MMSI: 241473000.

Date/timePositionNaut miles runAvg speedWind from/ knotsBaromVisibWave heightAir tempDewpointWater temp
2018-Aug-07 12:11N 27°34' W 015°17'313.9
2018-Aug-07 11:59N 27°37' W 015°16'713.6
2018-Aug-07 11:30N 27°43' W 015°12'713.7
2018-Aug-07 11:00N 27°49' W 015°08'713.8
2018-Aug-07 10:29N 27°55' W 015°05'713.8
2018-Aug-07 09:59N 28°02' W 015°03'613.4
2018-Aug-07 09:30N 28°08' W 015°00'713.4
2018-Aug-07 08:59N 28°14' W 014°57'613.3
2018-Aug-07 08:30N 28°20' W 014°55'713.2
2018-Aug-07 08:00N 28°26' W 014°50'713.3
2018-Aug-07 07:30N 28°31' W 014°45'713.4
2018-Aug-07 07:00N 28°36' W 014°40'713.3
2018-Aug-07 06:30N 28°41' W 014°36'713.5
2018-Aug-07 05:58N 28°46' W 014°30'613.5
2018-Aug-07 05:30N 28°51' W 014°25'713.5
2018-Aug-07 05:00N 28°56' W 014°20'713.5
2018-Aug-07 04:30N 29°02' W 014°16'713.5
2018-Aug-07 04:00N 29°07' W 014°11'713.2
2018-Aug-07 03:28N 29°12' W 014°06'613.3
2018-Aug-07 03:00N 29°17' W 014°01'713.6
2018-Aug-07 02:30N 29°22' W 013°56'713.8
2018-Aug-07 02:00N 29°28' W 013°51'713.8
2018-Aug-07 01:30N 29°33' W 013°46'814.0
2018-Aug-07 00:57N 29°38' W 013°40'614.1
2018-Aug-07 00:30N 29°43' W 013°35'713.8
2018-Aug-07 00:00N 29°48' W 013°29'713.9
2018-Aug-06 23:30N 29°53' W 013°24'713.6
2018-Aug-06 23:00N 29°58' W 013°18'713.7
2018-Aug-06 22:30N 30°02' W 013°12'713.6
2018-Aug-06 22:00N 30°07' W 013°07'714.0
2018-Aug-06 21:30N 30°12' W 013°01'714.1
2018-Aug-06 21:00N 30°17' W 012°55'713.9
2018-Aug-06 20:30N 30°22' W 012°50'713.8
2018-Aug-06 20:00N 30°27' W 012°44'713.9
2018-Aug-06 19:30N 30°32' W 012°39'713.5
2018-Aug-06 19:00N 30°37' W 012°33'713.4
2018-Aug-06 18:29N 30°42' W 012°28'713.3
2018-Aug-06 18:00N 30°47' W 012°22'4913.7
2018-Aug-06 14:25N 31°21' W 011°42'1614.0
2018-Aug-06 13:16N 31°33' W 011°29'413.9
2018-Aug-06 13:00N 31°36' W 011°26'713.9
2018-Aug-06 12:30N 31°41' W 011°20'814.0
2018-Aug-06 11:57N 31°46' W 011°14'713.9
2018-Aug-06 11:28N 31°51' W 011°08'1713.9
2018-Aug-06 10:13N 32°03' W 010°54'313.6
2018-Aug-06 10:00N 32°05' W 010°52'713.3
2018-Aug-06 09:28N 32°10' W 010°46'613.3
2018-Aug-06 09:00N 32°15' W 010°41'713.3
2018-Aug-06 08:30N 32°20' W 010°35'713.0
2018-Aug-06 08:01N 32°24' W 010°30'713.0
2018-Aug-06 07:30N 32°29' W 010°24'713.1
2018-Aug-06 06:59N 32°34' W 010°19'612.9
2018-Aug-06 06:30N 32°38' W 010°14'613.1
2018-Aug-06 06:00N 32°43' W 010°08'713.2
2018-Aug-06 05:29N 32°48' W 010°03'613.3
2018-Aug-06 05:00N 32°52' W 009°57'713.3
2018-Aug-06 04:30N 32°57' W 009°52'713.5
2018-Aug-06 04:00N 33°02' W 009°46'713.6
2018-Aug-06 03:30N 33°07' W 009°40'713.5
2018-Aug-06 03:00N 33°12' W 009°35'713.7
2018-Aug-06 02:30N 33°17' W 009°29'713.7
2018-Aug-06 02:00N 33°22' W 009°24'713.9
2018-Aug-06 01:31N 33°27' W 009°18'713.8
2018-Aug-06 00:59N 33°32' W 009°12'713.8
2018-Aug-06 00:30N 33°37' W 009°06'713.7
2018-Aug-05 23:59N 33°42' W 008°60'613.7
2018-Aug-05 23:30N 33°46' W 008°54'1013.6
2018-Aug-05 22:47N 33°53' W 008°46'1313.5
2018-Aug-05 21:49N 34°03' W 008°35'413.5
2018-Aug-05 21:30N 34°06' W 008°31'913.4
2018-Aug-05 20:50N 34°12' W 008°24'513.6
2018-Aug-05 20:29N 34°15' W 008°20'2613.8
2018-Aug-05 18:33N 34°34' W 007°57'113.8
2018-Aug-05 18:29N 34°35' W 007°57'713.8
2018-Aug-05 18:00N 34°40' W 007°51'814.0
2018-Aug-05 17:27N 34°45' W 007°44'813.9
2018-Aug-05 16:51N 34°51' W 007°37'514.1
2018-Aug-05 16:28N 34°55' W 007°33'613.9
2018-Aug-05 16:00N 34°60' W 007°27'713.8
2018-Aug-05 15:30N 35°05' W 007°21'713.7
2018-Aug-05 15:00N 35°10' W 007°15'1413.6
2018-Aug-05 14:00N 35°20' W 007°04'713.5
2018-Aug-05 13:30N 35°25' W 006°59'713.6
2018-Aug-05 13:00N 35°30' W 006°53'713.7
2018-Aug-05 12:30N 35°35' W 006°48'713.6
2018-Aug-05 11:58N 35°41' W 006°42'613.5
2018-Aug-05 11:30N 35°46' W 006°37'714.0
2018-Aug-05 11:00N 35°51' W 006°31'4812.4
2018-Aug-05 07:08N 35°59' W 005°32'110.5
2018-Aug-05 07:00N 35°59' W 005°31'5 9.9
2018-Aug-05 06:30N 36°01' W 005°25'5 9.3
2018-Aug-05 06:00N 36°05' W 005°23'3 5.7
2018-Aug-05 05:30N 36°08' W 005°23'0 0.1
2018-Aug-05 04:57N 36°08' W 005°23'0 0.0
2018-Aug-05 04:30N 36°08' W 005°23'0 0.1
2018-Aug-05 03:57N 36°08' W 005°23'0 0.1
2018-Aug-05 03:30N 36°08' W 005°23'0 0.1
2018-Aug-05 03:00N 36°08' W 005°23'0 0.1
2018-Aug-05 02:30N 36°08' W 005°23'0 0.4
2018-Aug-05 02:00N 36°08' W 005°23'0 0.2
2018-Aug-05 01:09N 36°08' W 005°23'0 0.0
2018-Aug-05 00:42N 36°08' W 005°23'0 0.1
2018-Aug-05 00:30N 36°08' W 005°23'0 0.0
2018-Aug-04 23:15N 36°08' W 005°23'0 0.0
2018-Aug-04 22:51N 36°08' W 005°23'0 0.0
2018-Aug-04 22:24N 36°08' W 005°23'0 0.1
2018-Aug-04 21:15N 36°08' W 005°23'0 0.0
2018-Aug-04 20:57N 36°08' W 005°23'0 0.2
2018-Aug-04 20:15N 36°08' W 005°23'0 0.1
2018-Aug-04 19:57N 36°08' W 005°23'0 0.0
2018-Aug-04 18:24N 36°08' W 005°23'0 0.0
2018-Aug-04 18:00N 36°08' W 005°23'0 0.1
2018-Aug-04 17:27N 36°08' W 005°23'1 3.1
2018-Aug-04 17:00N 36°06' W 005°23'2 4.6
2018-Aug-04 16:30N 36°05' W 005°21'0 0.5
2018-Aug-04 16:01N 36°05' W 005°20'2 3.9
2018-Aug-04 15:31N 36°05' W 005°18'2 3.9
2018-Aug-04 15:01N 36°06' W 005°16'4 8.4
2018-Aug-04 14:30N 36°09' W 005°12'0 0.9
2018-Aug-04 13:58N 36°09' W 005°11'1 0.6
2018-Aug-04 13:05N 36°09' W 005°11'0 0.6
2018-Aug-04 12:59N 36°09' W 005°10'0 0.7
2018-Aug-04 12:29N 36°09' W 005°10'3 1.1
2018-Aug-04 09:41N 36°06' W 005°09'0 1.0
2018-Aug-04 09:28N 36°06' W 005°09'3 0.8
2018-Aug-04 05:47N 36°09' W 005°10'0 0.4
2018-Aug-04 05:30N 36°09' W 005°10'0 0.2
2018-Aug-04 04:49N 36°09' W 005°10'0 0.4
2018-Aug-04 04:30N 36°09' W 005°10'0 0.3
2018-Aug-04 04:00N 36°09' W 005°10'1 1.9
2018-Aug-04 03:30N 36°09' W 005°11'0 1.0
2018-Aug-04 03:01N 36°08' W 005°11'0 0.4
2018-Aug-04 02:13N 36°08' W 005°11'0 0.8
2018-Aug-04 01:55N 36°08' W 005°11'3 0.5
2018-Aug-03 20:29N 36°07' W 005°07'0 0.8
2018-Aug-03 20:00N 36°07' W 005°08'4 0.7
2018-Aug-03 14:08N 36°05' W 005°12'1 5.8
2018-Aug-03 13:59N 36°05' W 005°13'2 0.3
2018-Aug-03 08:59N 36°05' W 005°11'3 6.6
2018-Aug-03 08:30N 36°03' W 005°14'22312.1
2018-Aug-02 14:08N 37°20' W 000°53'213.5
2018-Aug-02 14:00N 37°21' W 000°51'713.5
2018-Aug-02 13:30N 37°26' W 000°45'713.4
2018-Aug-02 13:00N 37°30' W 000°39'713.2
2018-Aug-02 12:28N 37°35' W 000°33'613.4
2018-Aug-02 12:00N 37°41' W 000°28'813.5
2018-Aug-02 11:26N 37°47' W 000°23'613.6
2018-Aug-02 11:00N 37°52' W 000°18'913.4
2018-Aug-02 10:21N 37°59' W 000°13'1813.7
2018-Aug-02 09:04N 38°14' W 000°01'113.9
2018-Aug-02 09:00N 38°15' W 000°00'713.9
2018-Aug-02 08:30N 38°21' E 000°05'714.1
2018-Aug-02 07:59N 38°27' E 000°10'814.0
2018-Aug-02 07:24N 38°34' E 000°15'2513.9
2018-Aug-02 05:36N 38°54' E 000°34'314.1
2018-Aug-02 05:22N 38°56' E 000°37'914.1
2018-Aug-02 04:45N 39°03' E 000°44'514.1
2018-Aug-02 04:25N 39°07' E 000°47'2313.7
2018-Aug-02 02:44N 39°25' E 001°06'3313.5
2018-Aug-02 00:16N 39°51' E 001°33'713.4
2018-Aug-01 23:44N 39°57' E 001°39'713.4
2018-Aug-01 23:13N 40°02' E 001°44'2313.4
2018-Aug-01 21:28N 40°21' E 002°03'3913.2
2018-Aug-01 18:29N 40°51' E 002°36'613.5
2018-Aug-01 18:01N 40°56' E 002°41'3513.5
2018-Aug-01 15:24N 41°24' E 003°10'614.1
2018-Aug-01 15:00N 41°28' E 003°15'11914.1
2018-Aug-01 06:33N 43°01' E 004°56'213.7
2018-Aug-01 06:26N 43°02' E 004°57'613.7
2018-Aug-01 06:00N 43°05' E 005°04'510.1
2018-Aug-01 05:30N 43°10' E 005°06'3 6.4
2018-Aug-01 04:57N 43°09' E 005°01'2 2.9
2018-Aug-01 04:21N 43°10' E 004°59'1 3.5
2018-Aug-01 04:00N 43°10' E 005°01'510.7
2018-Aug-01 03:30N 43°15' E 004°60'612.1
2018-Aug-01 03:00N 43°21' E 004°58'5 8.9
2018-Aug-01 02:29N 43°24' E 004°53'0 0.4
2018-Aug-01 01:58N 43°24' E 004°53'0 0.0
2018-Aug-01 01:31N 43°24' E 004°53'0 0.0
2018-Aug-01 01:01N 43°24' E 004°53'0 0.0
2018-Jul-31 22:25N 43°24' E 004°53'0 0.0
2018-Jul-31 22:01N 43°24' E 004°53'0 0.0
2018-Jul-31 21:19N 43°24' E 004°53'0 0.0
2018-Jul-31 21:01N 43°24' E 004°53'0 0.0
2018-Jul-31 20:28N 43°24' E 004°53'0 0.0
2018-Jul-31 19:52N 43°24' E 004°53'0 0.0
2018-Jul-31 19:31N 43°24' E 004°53'0 0.0
2018-Jul-31 18:55N 43°24' E 004°53'0 0.0
2018-Jul-31 18:25N 43°24' E 004°53'0 0.0
2018-Jul-31 18:01N 43°24' E 004°53'0 0.0
2018-Jul-31 17:31N 43°24' E 004°53'0 0.0
2018-Jul-31 17:01N 43°24' E 004°53'0 0.0
2018-Jul-31 16:31N 43°24' E 004°53'0 0.0
2018-Jul-31 16:01N 43°24' E 004°53'0 0.0
2018-Jul-31 15:31N 43°24' E 004°53'0 0.0
2018-Jul-31 15:01N 43°24' E 004°53'0 0.0
2018-Jul-31 14:28N 43°24' E 004°53'0 0.0
2018-Jul-31 14:01N 43°24' E 004°53'0 0.0
2018-Jul-31 13:28N 43°24' E 004°53'0 0.0
2018-Jul-31 12:58N 43°24' E 004°53'0 0.0
2018-Jul-31 12:31N 43°24' E 004°53'0 0.0
2018-Jul-31 12:01N 43°24' E 004°53'0 0.0
2018-Jul-31 11:31N 43°24' E 004°53'0 0.0
2018-Jul-31 10:55N 43°24' E 004°53'0 0.0
2018-Jul-31 10:31N 43°24' E 004°53'0 0.0
2018-Jul-31 09:55N 43°24' E 004°53'0 0.0
2018-Jul-31 09:31N 43°24' E 004°53'0 0.0
2018-Jul-31 08:49N 43°24' E 004°53'0 0.0
2018-Jul-31 08:31N 43°24' E 004°53'0 0.0
2018-Jul-31 07:52N 43°24' E 004°53'0 0.0
2018-Jul-31 07:31N 43°24' E 004°53'0 0.0
2018-Jul-31 07:01N 43°24' E 004°53'0 0.0
2018-Jul-31 06:31N 43°24' E 004°53'0 0.0
2018-Jul-31 06:01N 43°24' E 004°53'0 0.0
2018-Jul-31 05:28N 43°24' E 004°53'0 0.0
2018-Jul-31 04:49N 43°24' E 004°53'0 0.0
2018-Jul-31 04:25N 43°24' E 004°53'0 0.0
2018-Jul-31 04:01N 43°24' E 004°53'0 0.0
2018-Jul-31 03:31N 43°24' E 004°53'0 0.0
2018-Jul-31 03:01N 43°24' E 004°53'0 0.0
2018-Jul-31 02:31N 43°24' E 004°53'0 0.0
2018-Jul-31 01:55N 43°24' E 004°53'0 0.0
2018-Jul-31 01:31N 43°24' E 004°53'0 0.0
2018-Jul-31 00:31N 43°24' E 004°53'0 0.0
2018-Jul-31 00:01N 43°24' E 004°53'0 0.0
2018-Jul-30 23:28N 43°24' E 004°53'0 0.0
2018-Jul-30 23:01N 43°24' E 004°53'0 0.0
2018-Jul-30 22:31N 43°24' E 004°53'0 0.0
2018-Jul-30 22:01N 43°24' E 004°53'0 0.0
2018-Jul-30 21:31N 43°24' E 004°53'0 0.0
2018-Jul-30 21:01N 43°24' E 004°53'0 0.0
2018-Jul-30 20:31N 43°24' E 004°53'0 0.0
2018-Jul-30 19:46N 43°24' E 004°53'0 0.0
2018-Jul-30 19:31N 43°24' E 004°53'0 0.0
2018-Jul-30 19:01N 43°24' E 004°53'0 0.0
2018-Jul-30 18:31N 43°24' E 004°53'0 0.0
2018-Jul-30 18:01N 43°24' E 004°53'0 0.0
2018-Jul-30 17:13N 43°24' E 004°53'0 0.0
2018-Jul-30 16:55N 43°24' E 004°53'0 0.0
2018-Jul-30 16:07N 43°24' E 004°53'0 0.0
2018-Jul-30 16:01N 43°24' E 004°53'0 0.2
2018-Jul-30 15:30N 43°24' E 004°53'2 3.5
2018-Jul-30 15:00N 43°24' E 004°56'4 7.7
2018-Jul-30 14:30N 43°21' E 004°59'1 1.1
2018-Jul-30 13:59N 43°21' E 005°00'0 0.1
2018-Jul-30 13:29N 43°21' E 005°00'0 0.1
2018-Jul-30 12:59N 43°21' E 005°00'0 0.1
2018-Jul-30 12:29N 43°21' E 005°00'0 0.0
2018-Jul-30 11:59N 43°21' E 005°00'0 0.1
2018-Jul-30 11:26N 43°21' E 004°60'0 0.1
2018-Jul-30 10:59N 43°21' E 004°60'0 0.1
2018-Jul-30 10:23N 43°21' E 004°60'0 0.0
2018-Jul-30 09:59N 43°21' E 004°60'0 0.0
2018-Jul-30 09:29N 43°21' E 004°60'0 0.0
2018-Jul-30 08:59N 43°21' E 004°60'0 0.0
2018-Jul-30 08:29N 43°21' E 004°60'0 0.0
2018-Jul-30 07:59N 43°21' E 004°60'0 0.0
2018-Jul-30 07:26N 43°21' E 004°60'0 0.0
2018-Jul-30 06:59N 43°21' E 004°60'0 0.0
2018-Jul-30 06:29N 43°21' E 004°60'0 0.0
2018-Jul-30 05:59N 43°21' E 004°60'0 0.0
2018-Jul-30 05:29N 43°21' E 004°60'0 0.0
2018-Jul-30 04:59N 43°21' E 004°60'0 0.0
2018-Jul-30 04:29N 43°21' E 004°60'0 0.0
2018-Jul-30 03:59N 43°21' E 004°60'0 0.0
2018-Jul-30 03:29N 43°21' E 004°60'0 0.0
2018-Jul-30 02:59N 43°21' E 004°60'0 0.0
2018-Jul-30 02:29N 43°21' E 004°60'0 0.0
2018-Jul-30 01:59N 43°21' E 004°60'0 0.0
2018-Jul-30 01:29N 43°21' E 004°60'0 0.0
2018-Jul-30 00:59N 43°21' E 004°60'0 0.0
2018-Jul-30 00:29N 43°21' E 004°60'0 0.0
2018-Jul-29 23:59N 43°21' E 004°60'0 0.0
2018-Jul-29 23:29N 43°21' E 004°60'0 0.0
2018-Jul-29 22:59N 43°21' E 004°60'0 0.0
2018-Jul-29 22:29N 43°21' E 004°60'0 0.0
2018-Jul-29 21:59N 43°21' E 004°60'0 0.0
2018-Jul-29 21:29N 43°21' E 004°60'0 0.0
2018-Jul-29 20:59N 43°21' E 004°60'0 0.0
2018-Jul-29 20:29N 43°21' E 004°60'0 0.0
2018-Jul-29 19:59N 43°21' E 004°60'0 0.0
2018-Jul-29 19:29N 43°21' E 004°60'0 0.0
2018-Jul-29 18:59N 43°21' E 004°60'0 0.0
2018-Jul-29 18:29N 43°21' E 004°60'0 0.0
2018-Jul-29 17:59N 43°21' E 004°60'0 0.1
2018-Jul-29 17:26N 43°21' E 005°00'0 0.1
2018-Jul-29 16:53N 43°21' E 005°00'0 0.1
2018-Jul-29 16:29N 43°21' E 005°00'0 0.0
2018-Jul-29 15:59N 43°21' E 005°00'0 0.0
2018-Jul-29 15:29N 43°21' E 005°00'0 0.0
2018-Jul-29 14:59N 43°21' E 005°00'0 0.0
2018-Jul-29 14:29N 43°21' E 005°00'0 0.0
2018-Jul-29 13:29N 43°21' E 005°00'0 0.0
2018-Jul-29 12:59N 43°21' E 005°00'0 0.0
2018-Jul-29 12:29N 43°21' E 005°00'0 0.0
2018-Jul-29 11:59N 43°21' E 005°00'0 0.0
2018-Jul-29 11:29N 43°21' E 005°00'0 0.0
2018-Jul-29 10:59N 43°21' E 005°00'0 0.0
2018-Jul-29 10:29N 43°21' E 005°00'0 0.0
2018-Jul-29 09:59N 43°21' E 005°00'0 0.0
2018-Jul-29 09:29N 43°21' E 005°00'0 0.0
2018-Jul-29 08:56N 43°21' E 005°00'0 0.0
2018-Jul-29 08:29N 43°21' E 005°00'0 0.0
2018-Jul-29 07:59N 43°21' E 005°00'0 0.0
2018-Jul-29 07:29N 43°21' E 005°00'0 0.0
2018-Jul-29 06:59N 43°21' E 005°00'0 0.0
2018-Jul-29 06:29N 43°21' E 005°00'0 0.1
2018-Jul-29 05:56N 43°21' E 005°00'0 0.1
2018-Jul-29 05:26N 43°21' E 005°00'0 0.2
2018-Jul-29 04:59N 43°21' E 005°00'0 0.1
2018-Jul-29 04:29N 43°21' E 005°00'0 0.0
2018-Jul-29 03:56N 43°21' E 004°60'0 0.0
2018-Jul-29 03:29N 43°21' E 004°60'0 0.0
2018-Jul-29 02:59N 43°21' E 004°60'0 0.0
2018-Jul-29 02:29N 43°21' E 005°00'0 0.0
2018-Jul-29 01:59N 43°21' E 005°00'0 0.0
2018-Jul-29 01:29N 43°21' E 005°00'0 0.0
2018-Jul-29 00:59N 43°21' E 005°00'0 0.0
2018-Jul-29 00:29N 43°21' E 005°00'0 0.0
2018-Jul-28 23:59N 43°21' E 005°00'0 0.0
2018-Jul-28 23:29N 43°21' E 005°00'0 0.0
2018-Jul-28 22:59N 43°21' E 005°00'0 0.0
2018-Jul-28 22:29N 43°21' E 005°00'0 0.0
2018-Jul-28 21:53N 43°21' E 005°00'0 0.0
2018-Jul-28 21:23N 43°21' E 005°00'0 0.0
2018-Jul-28 20:59N 43°21' E 005°00'0 0.0
2018-Jul-28 20:29N 43°21' E 005°00'0 0.0
2018-Jul-28 19:59N 43°21' E 005°00'0 0.0
2018-Jul-28 19:29N 43°21' E 005°00'0 0.0
2018-Jul-28 18:59N 43°21' E 005°00'0 0.0
2018-Jul-28 18:26N 43°21' E 005°00'0 0.0
2018-Jul-28 17:59N 43°21' E 005°00'0 0.0
2018-Jul-28 17:29N 43°21' E 005°00'0 0.0
2018-Jul-28 16:59N 43°21' E 005°00'0 0.0
2018-Jul-28 16:29N 43°21' E 005°00'0 0.0
2018-Jul-28 15:59N 43°21' E 005°00'0 0.0
2018-Jul-28 15:29N 43°21' E 005°00'0 0.0
2018-Jul-28 14:59N 43°21' E 005°00'0 0.0
2018-Jul-28 14:29N 43°21' E 005°00'0 0.0
2018-Jul-28 13:59N 43°21' E 005°00'0 0.1
2018-Jul-28 13:26N 43°21' E 005°00'0 0.2
2018-Jul-28 12:59N 43°21' E 004°60'0 0.2
2018-Jul-28 12:26N 43°21' E 004°60'  
Track history (hours):
 
Tides and Currents Weather Stations Pressure Air Temp Water Temp Dewpoint Dewpoint Depression Visibility Wind Speed Wind Dir Waves Ship Positions

Cherokee

Last reported at 2018-Aug-07 12:11 UTC. Time now 2018-Aug-15 02:58 UTC.
Position N 27°34' W 015°17'.

Length 274 m; draft 9 m.

Type: Tanker. MMSI: 241473000.

Date/timePositionNaut miles runAvg speedWind from/ knotsBaromVisibWave heightAir tempDewpointWater temp
2018-Aug-07 12:11N 27°34' W 015°17'313.9
2018-Aug-07 11:59N 27°37' W 015°16'713.6
2018-Aug-07 11:30N 27°43' W 015°12'713.7
2018-Aug-07 11:00N 27°49' W 015°08'713.8
2018-Aug-07 10:29N 27°55' W 015°05'713.8
2018-Aug-07 09:59N 28°02' W 015°03'613.4
2018-Aug-07 09:30N 28°08' W 015°00'713.4
2018-Aug-07 08:59N 28°14' W 014°57'613.3
2018-Aug-07 08:30N 28°20' W 014°55'713.2
2018-Aug-07 08:00N 28°26' W 014°50'713.3
2018-Aug-07 07:30N 28°31' W 014°45'713.4
2018-Aug-07 07:00N 28°36' W 014°40'713.3
2018-Aug-07 06:30N 28°41' W 014°36'713.5
2018-Aug-07 05:58N 28°46' W 014°30'613.5
2018-Aug-07 05:30N 28°51' W 014°25'713.5
2018-Aug-07 05:00N 28°56' W 014°20'713.5
2018-Aug-07 04:30N 29°02' W 014°16'713.5
2018-Aug-07 04:00N 29°07' W 014°11'713.2
2018-Aug-07 03:28N 29°12' W 014°06'613.3
2018-Aug-07 03:00N 29°17' W 014°01'713.6
2018-Aug-07 02:30N 29°22' W 013°56'713.8
2018-Aug-07 02:00N 29°28' W 013°51'713.8
2018-Aug-07 01:30N 29°33' W 013°46'814.0
2018-Aug-07 00:57N 29°38' W 013°40'614.1
2018-Aug-07 00:30N 29°43' W 013°35'713.8
2018-Aug-07 00:00N 29°48' W 013°29'713.9
2018-Aug-06 23:30N 29°53' W 013°24'713.6
2018-Aug-06 23:00N 29°58' W 013°18'713.7
2018-Aug-06 22:30N 30°02' W 013°12'713.6
2018-Aug-06 22:00N 30°07' W 013°07'714.0
2018-Aug-06 21:30N 30°12' W 013°01'714.1
2018-Aug-06 21:00N 30°17' W 012°55'713.9
2018-Aug-06 20:30N 30°22' W 012°50'713.8
2018-Aug-06 20:00N 30°27' W 012°44'713.9
2018-Aug-06 19:30N 30°32' W 012°39'713.5
2018-Aug-06 19:00N 30°37' W 012°33'713.4
2018-Aug-06 18:29N 30°42' W 012°28'713.3
2018-Aug-06 18:00N 30°47' W 012°22'4913.7
2018-Aug-06 14:25N 31°21' W 011°42'1614.0
2018-Aug-06 13:16N 31°33' W 011°29'413.9
2018-Aug-06 13:00N 31°36' W 011°26'713.9
2018-Aug-06 12:30N 31°41' W 011°20'814.0
2018-Aug-06 11:57N 31°46' W 011°14'713.9
2018-Aug-06 11:28N 31°51' W 011°08'1713.9
2018-Aug-06 10:13N 32°03' W 010°54'313.6
2018-Aug-06 10:00N 32°05' W 010°52'713.3
2018-Aug-06 09:28N 32°10' W 010°46'613.3
2018-Aug-06 09:00N 32°15' W 010°41'713.3
2018-Aug-06 08:30N 32°20' W 010°35'713.0
2018-Aug-06 08:01N 32°24' W 010°30'713.0
2018-Aug-06 07:30N 32°29' W 010°24'713.1
2018-Aug-06 06:59N 32°34' W 010°19'612.9
2018-Aug-06 06:30N 32°38' W 010°14'613.1
2018-Aug-06 06:00N 32°43' W 010°08'713.2
2018-Aug-06 05:29N 32°48' W 010°03'613.3
2018-Aug-06 05:00N 32°52' W 009°57'713.3
2018-Aug-06 04:30N 32°57' W 009°52'713.5
2018-Aug-06 04:00N 33°02' W 009°46'713.6
2018-Aug-06 03:30N 33°07' W 009°40'713.5
2018-Aug-06 03:00N 33°12' W 009°35'713.7
2018-Aug-06 02:30N 33°17' W 009°29'713.7
2018-Aug-06 02:00N 33°22' W 009°24'713.9
2018-Aug-06 01:31N 33°27' W 009°18'713.8
2018-Aug-06 00:59N 33°32' W 009°12'713.8
2018-Aug-06 00:30N 33°37' W 009°06'713.7
2018-Aug-05 23:59N 33°42' W 008°60'613.7
2018-Aug-05 23:30N 33°46' W 008°54'1013.6
2018-Aug-05 22:47N 33°53' W 008°46'1313.5
2018-Aug-05 21:49N 34°03' W 008°35'413.5
2018-Aug-05 21:30N 34°06' W 008°31'913.4
2018-Aug-05 20:50N 34°12' W 008°24'513.6
2018-Aug-05 20:29N 34°15' W 008°20'2613.8
2018-Aug-05 18:33N 34°34' W 007°57'113.8
2018-Aug-05 18:29N 34°35' W 007°57'713.8
2018-Aug-05 18:00N 34°40' W 007°51'814.0
2018-Aug-05 17:27N 34°45' W 007°44'813.9
2018-Aug-05 16:51N 34°51' W 007°37'514.1
2018-Aug-05 16:28N 34°55' W 007°33'613.9
2018-Aug-05 16:00N 34°60' W 007°27'713.8
2018-Aug-05 15:30N 35°05' W 007°21'713.7
2018-Aug-05 15:00N 35°10' W 007°15'1413.6
2018-Aug-05 14:00N 35°20' W 007°04'713.5
2018-Aug-05 13:30N 35°25' W 006°59'713.6
2018-Aug-05 13:00N 35°30' W 006°53'713.7
2018-Aug-05 12:30N 35°35' W 006°48'713.6
2018-Aug-05 11:58N 35°41' W 006°42'613.5
2018-Aug-05 11:30N 35°46' W 006°37'714.0
2018-Aug-05 11:00N 35°51' W 006°31'4812.4
2018-Aug-05 07:08N 35°59' W 005°32'110.5
2018-Aug-05 07:00N 35°59' W 005°31'5 9.9
2018-Aug-05 06:30N 36°01' W 005°25'5 9.3
2018-Aug-05 06:00N 36°05' W 005°23'3 5.7
2018-Aug-05 05:30N 36°08' W 005°23'0 0.1
2018-Aug-05 04:57N 36°08' W 005°23'0 0.0
2018-Aug-05 04:30N 36°08' W 005°23'0 0.1
2018-Aug-05 03:57N 36°08' W 005°23'0 0.1
2018-Aug-05 03:30N 36°08' W 005°23'0 0.1
2018-Aug-05 03:00N 36°08' W 005°23'0 0.1
2018-Aug-05 02:30N 36°08' W 005°23'0 0.4
2018-Aug-05 02:00N 36°08' W 005°23'0 0.2
2018-Aug-05 01:09N 36°08' W 005°23'0 0.0
2018-Aug-05 00:42N 36°08' W 005°23'0 0.1
2018-Aug-05 00:30N 36°08' W 005°23'0 0.0
2018-Aug-04 23:15N 36°08' W 005°23'0 0.0
2018-Aug-04 22:51N 36°08' W 005°23'0 0.0
2018-Aug-04 22:24N 36°08' W 005°23'0 0.1
2018-Aug-04 21:15N 36°08' W 005°23'0 0.0
2018-Aug-04 20:57N 36°08' W 005°23'0 0.2
2018-Aug-04 20:15N 36°08' W 005°23'0 0.1
2018-Aug-04 19:57N 36°08' W 005°23'0 0.0
2018-Aug-04 18:24N 36°08' W 005°23'0 0.0
2018-Aug-04 18:00N 36°08' W 005°23'0 0.1
2018-Aug-04 17:27N 36°08' W 005°23'1 3.1
2018-Aug-04 17:00N 36°06' W 005°23'2 4.6
2018-Aug-04 16:30N 36°05' W 005°21'0 0.5
2018-Aug-04 16:01N 36°05' W 005°20'2 3.9
2018-Aug-04 15:31N 36°05' W 005°18'2 3.9
2018-Aug-04 15:01N 36°06' W 005°16'4 8.4
2018-Aug-04 14:30N 36°09' W 005°12'0 0.9
2018-Aug-04 13:58N 36°09' W 005°11'1 0.6
2018-Aug-04 13:05N 36°09' W 005°11'0 0.6
2018-Aug-04 12:59N 36°09' W 005°10'0 0.7
2018-Aug-04 12:29N 36°09' W 005°10'3 1.1
2018-Aug-04 09:41N 36°06' W 005°09'0 1.0
2018-Aug-04 09:28N 36°06' W 005°09'3 0.8
2018-Aug-04 05:47N 36°09' W 005°10'0 0.4
2018-Aug-04 05:30N 36°09' W 005°10'0 0.2
2018-Aug-04 04:49N 36°09' W 005°10'0 0.4
2018-Aug-04 04:30N 36°09' W 005°10'0 0.3
2018-Aug-04 04:00N 36°09' W 005°10'1 1.9
2018-Aug-04 03:30N 36°09' W 005°11'0 1.0
2018-Aug-04 03:01N 36°08' W 005°11'0 0.4
2018-Aug-04 02:13N 36°08' W 005°11'0 0.8
2018-Aug-04 01:55N 36°08' W 005°11'3 0.5
2018-Aug-03 20:29N 36°07' W 005°07'0 0.8
2018-Aug-03 20:00N 36°07' W 005°08'4 0.7
2018-Aug-03 14:08N 36°05' W 005°12'1 5.8
2018-Aug-03 13:59N 36°05' W 005°13'2 0.3
2018-Aug-03 08:59N 36°05' W 005°11'3 6.6
2018-Aug-03 08:30N 36°03' W 005°14'22312.1
2018-Aug-02 14:08N 37°20' W 000°53'213.5
2018-Aug-02 14:00N 37°21' W 000°51'713.5
2018-Aug-02 13:30N 37°26' W 000°45'713.4
2018-Aug-02 13:00N 37°30' W 000°39'713.2
2018-Aug-02 12:28N 37°35' W 000°33'613.4
2018-Aug-02 12:00N 37°41' W 000°28'813.5
2018-Aug-02 11:26N 37°47' W 000°23'613.6
2018-Aug-02 11:00N 37°52' W 000°18'913.4
2018-Aug-02 10:21N 37°59' W 000°13'1813.7
2018-Aug-02 09:04N 38°14' W 000°01'113.9
2018-Aug-02 09:00N 38°15' W 000°00'713.9
2018-Aug-02 08:30N 38°21' E 000°05'714.1
2018-Aug-02 07:59N 38°27' E 000°10'814.0
2018-Aug-02 07:24N 38°34' E 000°15'2513.9
2018-Aug-02 05:36N 38°54' E 000°34'314.1
2018-Aug-02 05:22N 38°56' E 000°37'914.1
2018-Aug-02 04:45N 39°03' E 000°44'514.1
2018-Aug-02 04:25N 39°07' E 000°47'2313.7
2018-Aug-02 02:44N 39°25' E 001°06'3313.5
2018-Aug-02 00:16N 39°51' E 001°33'713.4
2018-Aug-01 23:44N 39°57' E 001°39'713.4
2018-Aug-01 23:13N 40°02' E 001°44'2313.4
2018-Aug-01 21:28N 40°21' E 002°03'3913.2
2018-Aug-01 18:29N 40°51' E 002°36'613.5
2018-Aug-01 18:01N 40°56' E 002°41'3513.5
2018-Aug-01 15:24N 41°24' E 003°10'614.1
2018-Aug-01 15:00N 41°28' E 003°15'11914.1
2018-Aug-01 06:33N 43°01' E 004°56'213.7
2018-Aug-01 06:26N 43°02' E 004°57'613.7
2018-Aug-01 06:00N 43°05' E 005°04'510.1
2018-Aug-01 05:30N 43°10' E 005°06'3 6.4
2018-Aug-01 04:57N 43°09' E 005°01'2 2.9
2018-Aug-01 04:21N 43°10' E 004°59'1 3.5
2018-Aug-01 04:00N 43°10' E 005°01'510.7
2018-Aug-01 03:30N 43°15' E 004°60'612.1
2018-Aug-01 03:00N 43°21' E 004°58'5 8.9
2018-Aug-01 02:29N 43°24' E 004°53'0 0.4
2018-Aug-01 01:58N 43°24' E 004°53'0 0.0
2018-Aug-01 01:31N 43°24' E 004°53'0 0.0
2018-Aug-01 01:01N 43°24' E 004°53'0 0.0
2018-Jul-31 22:25N 43°24' E 004°53'0 0.0
2018-Jul-31 22:01N 43°24' E 004°53'0 0.0
2018-Jul-31 21:19N 43°24' E 004°53'0 0.0
2018-Jul-31 21:01N 43°24' E 004°53'0 0.0
2018-Jul-31 20:28N 43°24' E 004°53'0 0.0
2018-Jul-31 19:52N 43°24' E 004°53'0 0.0
2018-Jul-31 19:31N 43°24' E 004°53'0 0.0
2018-Jul-31 18:55N 43°24' E 004°53'0 0.0
2018-Jul-31 18:25N 43°24' E 004°53'0 0.0
2018-Jul-31 18:01N 43°24' E 004°53'0 0.0
2018-Jul-31 17:31N 43°24' E 004°53'0 0.0
2018-Jul-31 17:01N 43°24' E 004°53'0 0.0
2018-Jul-31 16:31N 43°24' E 004°53'0 0.0
2018-Jul-31 16:01N 43°24' E 004°53'0 0.0
2018-Jul-31 15:31N 43°24' E 004°53'0 0.0
2018-Jul-31 15:01N 43°24' E 004°53'0 0.0
2018-Jul-31 14:28N 43°24' E 004°53'0 0.0
2018-Jul-31 14:01N 43°24' E 004°53'0 0.0
2018-Jul-31 13:28N 43°24' E 004°53'0 0.0
2018-Jul-31 12:58N 43°24' E 004°53'0 0.0
2018-Jul-31 12:31N 43°24' E 004°53'0 0.0
2018-Jul-31 12:01N 43°24' E 004°53'0 0.0
2018-Jul-31 11:31N 43°24' E 004°53'0 0.0
2018-Jul-31 10:55N 43°24' E 004°53'0 0.0
2018-Jul-31 10:31N 43°24' E 004°53'0 0.0
2018-Jul-31 09:55N 43°24' E 004°53'0 0.0
2018-Jul-31 09:31N 43°24' E 004°53'0 0.0
2018-Jul-31 08:49N 43°24' E 004°53'0 0.0
2018-Jul-31 08:31N 43°24' E 004°53'0 0.0
2018-Jul-31 07:52N 43°24' E 004°53'0 0.0
2018-Jul-31 07:31N 43°24' E 004°53'0 0.0
2018-Jul-31 07:01N 43°24' E 004°53'0 0.0
2018-Jul-31 06:31N 43°24' E 004°53'0 0.0
2018-Jul-31 06:01N 43°24' E 004°53'0 0.0
2018-Jul-31 05:28N 43°24' E 004°53'0 0.0
2018-Jul-31 04:49N 43°24' E 004°53'0 0.0
2018-Jul-31 04:25N 43°24' E 004°53'0 0.0
2018-Jul-31 04:01N 43°24' E 004°53'0 0.0
2018-Jul-31 03:31N 43°24' E 004°53'0 0.0
2018-Jul-31 03:01N 43°24' E 004°53'0 0.0
2018-Jul-31 02:31N 43°24' E 004°53'0 0.0
2018-Jul-31 01:55N 43°24' E 004°53'0 0.0
2018-Jul-31 01:31N 43°24' E 004°53'0 0.0
2018-Jul-31 00:31N 43°24' E 004°53'0 0.0
2018-Jul-31 00:01N 43°24' E 004°53'0 0.0
2018-Jul-30 23:28N 43°24' E 004°53'0 0.0
2018-Jul-30 23:01N 43°24' E 004°53'0 0.0
2018-Jul-30 22:31N 43°24' E 004°53'0 0.0
2018-Jul-30 22:01N 43°24' E 004°53'0 0.0
2018-Jul-30 21:31N 43°24' E 004°53'0 0.0
2018-Jul-30 21:01N 43°24' E 004°53'0 0.0
2018-Jul-30 20:31N 43°24' E 004°53'0 0.0
2018-Jul-30 19:46N 43°24' E 004°53'0 0.0
2018-Jul-30 19:31N 43°24' E 004°53'0 0.0
2018-Jul-30 19:01N 43°24' E 004°53'0 0.0
2018-Jul-30 18:31N 43°24' E 004°53'0 0.0
2018-Jul-30 18:01N 43°24' E 004°53'0 0.0
2018-Jul-30 17:13N 43°24' E 004°53'0 0.0
2018-Jul-30 16:55N 43°24' E 004°53'0 0.0
2018-Jul-30 16:07N 43°24' E 004°53'0 0.0
2018-Jul-30 16:01N 43°24' E 004°53'0 0.2
2018-Jul-30 15:30N 43°24' E 004°53'2 3.5
2018-Jul-30 15:00N 43°24' E 004°56'4 7.7
2018-Jul-30 14:30N 43°21' E 004°59'1 1.1
2018-Jul-30 13:59N 43°21' E 005°00'0 0.1
2018-Jul-30 13:29N 43°21' E 005°00'0 0.1
2018-Jul-30 12:59N 43°21' E 005°00'0 0.1
2018-Jul-30 12:29N 43°21' E 005°00'0 0.0
2018-Jul-30 11:59N 43°21' E 005°00'0 0.1
2018-Jul-30 11:26N 43°21' E 004°60'0 0.1
2018-Jul-30 10:59N 43°21' E 004°60'0 0.1
2018-Jul-30 10:23N 43°21' E 004°60'0 0.0
2018-Jul-30 09:59N 43°21' E 004°60'0 0.0
2018-Jul-30 09:29N 43°21' E 004°60'0 0.0
2018-Jul-30 08:59N 43°21' E 004°60'0 0.0
2018-Jul-30 08:29N 43°21' E 004°60'0 0.0
2018-Jul-30 07:59N 43°21' E 004°60'0 0.0
2018-Jul-30 07:26N 43°21' E 004°60'0 0.0
2018-Jul-30 06:59N 43°21' E 004°60'0 0.0
2018-Jul-30 06:29N 43°21' E 004°60'0 0.0
2018-Jul-30 05:59N 43°21' E 004°60'0 0.0
2018-Jul-30 05:29N 43°21' E 004°60'0 0.0
2018-Jul-30 04:59N 43°21' E 004°60'0 0.0
2018-Jul-30 04:29N 43°21' E 004°60'0 0.0
2018-Jul-30 03:59N 43°21' E 004°60'0 0.0
2018-Jul-30 03:29N 43°21' E 004°60'0 0.0
2018-Jul-30 02:59N 43°21' E 004°60'0 0.0
2018-Jul-30 02:29N 43°21' E 004°60'0 0.0
2018-Jul-30 01:59N 43°21' E 004°60'0 0.0
2018-Jul-30 01:29N 43°21' E 004°60'0 0.0
2018-Jul-30 00:59N 43°21' E 004°60'0 0.0
2018-Jul-30 00:29N 43°21' E 004°60'0 0.0
2018-Jul-29 23:59N 43°21' E 004°60'0 0.0
2018-Jul-29 23:29N 43°21' E 004°60'0 0.0
2018-Jul-29 22:59N 43°21' E 004°60'0 0.0
2018-Jul-29 22:29N 43°21' E 004°60'0 0.0
2018-Jul-29 21:59N 43°21' E 004°60'0 0.0
2018-Jul-29 21:29N 43°21' E 004°60'0 0.0
2018-Jul-29 20:59N 43°21' E 004°60'0 0.0
2018-Jul-29 20:29N 43°21' E 004°60'0 0.0
2018-Jul-29 19:59N 43°21' E 004°60'0 0.0
2018-Jul-29 19:29N 43°21' E 004°60'0 0.0
2018-Jul-29 18:59N 43°21' E 004°60'0 0.0
2018-Jul-29 18:29N 43°21' E 004°60'0 0.0
2018-Jul-29 17:59N 43°21' E 004°60'0 0.1
2018-Jul-29 17:26N 43°21' E 005°00'0 0.1
2018-Jul-29 16:53N 43°21' E 005°00'0 0.1
2018-Jul-29 16:29N 43°21' E 005°00'0 0.0
2018-Jul-29 15:59N 43°21' E 005°00'0 0.0
2018-Jul-29 15:29N 43°21' E 005°00'0 0.0
2018-Jul-29 14:59N 43°21' E 005°00'0 0.0
2018-Jul-29 14:29N 43°21' E 005°00'0 0.0
2018-Jul-29 13:29N 43°21' E 005°00'0 0.0
2018-Jul-29 12:59N 43°21' E 005°00'0 0.0
2018-Jul-29 12:29N 43°21' E 005°00'0 0.0
2018-Jul-29 11:59N 43°21' E 005°00'0 0.0
2018-Jul-29 11:29N 43°21' E 005°00'0 0.0
2018-Jul-29 10:59N 43°21' E 005°00'0 0.0
2018-Jul-29 10:29N 43°21' E 005°00'0 0.0
2018-Jul-29 09:59N 43°21' E 005°00'0 0.0
2018-Jul-29 09:29N 43°21' E 005°00'0 0.0
2018-Jul-29 08:56N 43°21' E 005°00'0 0.0
2018-Jul-29 08:29N 43°21' E 005°00'0 0.0
2018-Jul-29 07:59N 43°21' E 005°00'0 0.0
2018-Jul-29 07:29N 43°21' E 005°00'0 0.0
2018-Jul-29 06:59N 43°21' E 005°00'0 0.0
2018-Jul-29 06:29N 43°21' E 005°00'0 0.1
2018-Jul-29 05:56N 43°21' E 005°00'0 0.1
2018-Jul-29 05:26N 43°21' E 005°00'0 0.2
2018-Jul-29 04:59N 43°21' E 005°00'0 0.1
2018-Jul-29 04:29N 43°21' E 005°00'0 0.0
2018-Jul-29 03:56N 43°21' E 004°60'0 0.0
2018-Jul-29 03:29N 43°21' E 004°60'0 0.0
2018-Jul-29 02:59N 43°21' E 004°60'0 0.0
2018-Jul-29 02:29N 43°21' E 005°00'0 0.0
2018-Jul-29 01:59N 43°21' E 005°00'0 0.0
2018-Jul-29 01:29N 43°21' E 005°00'0 0.0
2018-Jul-29 00:59N 43°21' E 005°00'0 0.0
2018-Jul-29 00:29N 43°21' E 005°00'0 0.0
2018-Jul-28 23:59N 43°21' E 005°00'0 0.0
2018-Jul-28 23:29N 43°21' E 005°00'0 0.0
2018-Jul-28 22:59N 43°21' E 005°00'0 0.0
2018-Jul-28 22:29N 43°21' E 005°00'0 0.0
2018-Jul-28 21:53N 43°21' E 005°00'0 0.0
2018-Jul-28 21:23N 43°21' E 005°00'0 0.0
2018-Jul-28 20:59N 43°21' E 005°00'0 0.0
2018-Jul-28 20:29N 43°21' E 005°00'0 0.0
2018-Jul-28 19:59N 43°21' E 005°00'0 0.0
2018-Jul-28 19:29N 43°21' E 005°00'0 0.0
2018-Jul-28 18:59N 43°21' E 005°00'0 0.0
2018-Jul-28 18:26N 43°21' E 005°00'0 0.0
2018-Jul-28 17:59N 43°21' E 005°00'0 0.0
2018-Jul-28 17:29N 43°21' E 005°00'0 0.0
2018-Jul-28 16:59N 43°21' E 005°00'0 0.0
2018-Jul-28 16:29N 43°21' E 005°00'0 0.0
2018-Jul-28 15:59N 43°21' E 005°00'0 0.0
2018-Jul-28 15:29N 43°21' E 005°00'0 0.0
2018-Jul-28 14:59N 43°21' E 005°00'0 0.0
2018-Jul-28 14:29N 43°21' E 005°00'0 0.0
2018-Jul-28 13:59N 43°21' E 005°00'0 0.1
2018-Jul-28 13:26N 43°21' E 005°00'0 0.2
2018-Jul-28 12:59N 43°21' E 004°60'0 0.2
2018-Jul-28 12:26N 43°21' E 004°60'  

Dump ship's entire track history